プンタアレナス の空港の天気 - METARとTAF

プンタアレナス空港 ( SCCI / PUQ ) - チリ プンタアレナス
飛行場実況気象(Metar)
観測時間01/19 08:00 CLST (01/19 11:00 UTC)
風向・風速西 11m/s 瞬間風速17m/s
視程10km以上
天気現象
少しの雲 雲底高度 1340m
全天の4割程度の雲 雲底高度 1620m
全天の8割程度の雲 雲底高度 3050m
気温15℃
湿度67%
気圧993hPa
METARSCCI 191100Z 26022G33KT 230V290 9999 FEW044 SCT053 BKN100 15/09 Q0993 NOSIG
過去の天気等 Google飛行場航空写真 Wunderground天気予報

過去48時間のMETAR

飛行場予報(TAF)
発表時間: 1/19 03:54 CLST (1/19 06:54 UTC)
予報対象時間: 19日4時 CLST ~ 20日3時 CLST
風向・風速北西 10m/s 瞬間風速 15m/s
視程9000m
全天の4割程度の雲 雲底高度 1070m
19日4時 CLST ~ 19日10時 CLST に一時的に
風向・風速西北西 15m/s 瞬間風速 21m/s
全天の4割程度の雲 雲底高度 610m
全天の8割程度の雲 雲底高度 910m
19日10時 CLST ~ 19日12時 CLST に徐々に
風向・風速西 10m/s 瞬間風速 15m/s
19日11時 CLST ~ 19日13時 CLST に徐々に
視程10km以上
天気現象運行に影響にある天気現象が終了
19日14時 CLST ~ 19日16時 CLST に徐々に
風向・風速西 9m/s
19日22時 CLST ~ 19日24時 CLST に徐々に
風向・風速西 4m/s
TAF AMD SCCI 190654Z 1907/2006 31020G30KT 9000 SCT035 TX17/1918Z TN06/2006Z
TEMPO 1907/1913 30030G40KT SCT020 BKN030
BECMG 1913/1915 28020G30KT
BECMG 1914/1916 9999 NSW
BECMG 1917/1919 28018KT
BECMG 2001/2003 28008KT